createdAt,value
2019-04-22T00:01:55.207Z,13.30
2019-04-22T00:04:35.394Z,13.30
2019-04-22T00:07:18.081Z,13.20
2019-04-22T00:09:45.557Z,13.10
2019-04-22T00:12:22.263Z,13.00
2019-04-22T00:14:42.026Z,13.00
2019-04-22T00:17:27.747Z,13.00
2019-04-22T00:19:55.241Z,13.20
2019-04-22T00:22:22.199Z,13.20
2019-04-22T00:24:46.221Z,13.10
2019-04-22T00:27:26.144Z,12.90
2019-04-22T00:30:09.166Z,12.90
2019-04-22T00:32:24.516Z,12.80
2019-04-22T00:35:03.945Z,12.70
2019-04-22T00:37:28.538Z,12.60
2019-04-22T00:40:03.143Z,12.60
2019-04-22T00:42:36.351Z,12.60
2019-04-22T00:45:09.461Z,12.60
2019-04-22T00:47:32.483Z,12.60
2019-04-22T00:50:20.369Z,12.60
2019-04-22T00:52:34.289Z,12.50
2019-04-22T00:55:06.099Z,12.50
2019-04-22T00:57:35.713Z,12.50
2019-04-22T01:00:05.454Z,12.40
2019-04-22T01:02:38.987Z,12.30
2019-04-22T01:05:07.705Z,12.40
2019-04-22T01:07:30.114Z,12.40
2019-04-22T01:10:07.236Z,12.40
2019-04-22T01:12:31.950Z,12.30
2019-04-22T01:15:08.733Z,12.30
2019-04-22T01:17:35.837Z,12.30
2019-04-22T01:20:45.684Z,12.30
2019-04-22T01:22:52.141Z,12.20
2019-04-22T01:25:18.890Z,12.10
2019-04-22T01:27:48.864Z,12.00
2019-04-22T01:30:14.681Z,12.10
2019-04-22T01:32:39.984Z,12.00
2019-04-22T01:35:19.715Z,12.00
2019-04-22T01:37:54.635Z,12.10
2019-04-22T01:40:39.067Z,12.10
2019-04-22T01:43:07.337Z,12.00
2019-04-22T01:45:39.471Z,12.00
2019-04-22T01:48:02.540Z,12.00
2019-04-22T01:50:30.699Z,12.00
2019-04-22T01:53:06.478Z,12.00
2019-04-22T01:55:38.846Z,12.00
2019-04-22T01:58:00.080Z,12.00
2019-04-22T02:00:40.162Z,11.90
2019-04-22T02:03:12.719Z,11.90
2019-04-22T02:05:40.312Z,11.90
2019-04-22T02:08:22.013Z,11.80
2019-04-22T02:10:39.267Z,11.80
2019-04-22T02:13:08.068Z,11.80
2019-04-22T02:15:47.758Z,11.80
2019-04-22T02:18:29.669Z,11.70
2019-04-22T02:20:43.033Z,11.70
2019-04-22T02:25:58.046Z,11.70
2019-04-22T02:28:32.545Z,11.70
2019-04-22T02:33:58.564Z,11.70
2019-04-22T02:41:17.413Z,11.50
2019-04-22T02:43:46.467Z,11.50
2019-04-22T02:54:12.289Z,11.40
2019-04-22T02:56:12.633Z,11.30
2019-04-22T02:58:47.975Z,11.30
2019-04-22T03:16:23.556Z,11.10
2019-04-22T03:18:57.195Z,11.10
2019-04-22T03:21:02.228Z,11.00
2019-04-22T03:23:45.483Z,11.00
2019-04-22T03:31:47.401Z,11.00
2019-04-22T03:34:48.706Z,11.00
2019-04-22T03:39:27.438Z,10.80
2019-04-22T03:41:51.816Z,10.70
2019-04-22T03:44:29.275Z,10.70
2019-04-22T03:46:36.717Z,10.70
2019-04-22T03:49:11.045Z,10.70
2019-04-22T03:59:11.516Z,10.80
2019-04-22T04:01:41.558Z,10.80
2019-04-22T04:04:09.395Z,10.80
2019-04-22T04:06:41.614Z,10.70
2019-04-22T04:09:02.840Z,10.70
2019-04-22T04:11:45.139Z,10.70
2019-04-22T04:19:08.375Z,10.70
2019-04-22T04:21:33.074Z,10.70
2019-04-22T04:24:19.863Z,10.60
2019-04-22T04:26:48.072Z,10.70
2019-04-22T04:29:17.397Z,10.70
2019-04-22T04:31:33.781Z,10.70
2019-04-22T04:34:04.432Z,10.70
2019-04-22T04:36:42.217Z,10.80
2019-04-22T04:39:05.634Z,10.70
2019-04-22T04:44:23.051Z,10.80
2019-04-22T04:49:14.584Z,10.90
2019-04-22T04:51:56.152Z,11.10
2019-04-22T04:54:13.141Z,11.10
2019-04-22T04:56:38.545Z,11.30
2019-04-22T04:59:28.187Z,11.30
2019-04-22T05:01:35.432Z,11.40
2019-04-22T05:04:14.316Z,11.50
2019-04-22T05:06:44.990Z,11.60
2019-04-22T05:11:47.413Z,11.80
2019-04-22T05:14:09.268Z,11.90
2019-04-22T05:19:07.618Z,12.30
2019-04-22T05:24:14.993Z,14.40
2019-04-22T05:26:35.024Z,15.50
2019-04-22T05:29:05.482Z,15.60
2019-04-22T05:34:04.130Z,16.80
2019-04-22T05:36:34.503Z,16.90
2019-04-22T05:39:01.902Z,16.60
2019-04-22T05:41:36.429Z,16.10
2019-04-22T05:44:02.896Z,16.20
2019-04-22T05:46:34.374Z,16.00
2019-04-22T05:49:11.635Z,15.10
2019-04-22T05:51:37.026Z,14.60
2019-04-22T05:54:02.592Z,14.70
2019-04-22T05:59:06.513Z,14.70
2019-04-22T06:01:43.501Z,15.00
2019-04-22T06:04:08.730Z,14.70
2019-04-22T06:06:32.294Z,14.60
2019-04-22T06:09:05.141Z,14.40
2019-04-22T06:14:12.386Z,14.40
2019-04-22T06:16:53.558Z,14.00
2019-04-22T06:19:21.158Z,14.10
2019-04-22T06:21:46.404Z,14.30
2019-04-22T06:29:23.800Z,14.00
2019-04-22T06:32:15.212Z,13.90
2019-04-22T06:34:22.380Z,14.10
2019-04-22T06:36:54.946Z,14.10
2019-04-22T06:39:25.984Z,14.30
2019-04-22T06:49:27.989Z,14.50
2019-04-22T06:52:08.029Z,14.60
2019-04-22T06:54:22.277Z,14.70
2019-04-22T06:56:49.240Z,15.00
2019-04-22T06:59:19.009Z,15.30
2019-04-22T07:01:48.671Z,15.40
2019-04-22T07:04:17.116Z,15.60
2019-04-22T07:06:56.286Z,15.90
2019-04-22T07:09:28.512Z,17.20
2019-04-22T07:11:49.694Z,18.50
2019-04-22T07:14:18.443Z,18.70
2019-04-22T07:16:54.651Z,19.70
2019-04-22T07:21:50.648Z,21.70
2019-04-22T07:26:54.360Z,21.40
2019-04-22T07:29:29.291Z,20.10
2019-04-22T07:31:55.782Z,19.70
2019-04-22T07:34:28.372Z,19.70
2019-04-22T07:37:06.578Z,19.10
2019-04-22T07:39:30.405Z,18.70
2019-04-22T07:41:51.693Z,19.30
2019-04-22T07:47:07.829Z,20.70
2019-04-22T07:49:31.190Z,21.60
2019-04-22T07:51:55.911Z,22.10
2019-04-22T07:54:25.949Z,22.10
2019-04-22T07:56:59.956Z,22.90
2019-04-22T07:59:30.386Z,24.10
2019-04-22T08:01:55.925Z,23.90
2019-04-22T08:04:35.927Z,22.80
2019-04-22T08:06:57.339Z,22.40
2019-04-22T08:09:33.582Z,22.40
2019-04-22T08:11:57.869Z,22.60
2019-04-22T08:14:28.319Z,23.80
2019-04-22T08:17:18.864Z,23.30
2019-04-22T08:19:35.413Z,23.70
2019-04-22T08:22:15.666Z,23.60
2019-04-22T08:24:35.716Z,23.60
2019-04-22T08:26:58.127Z,23.80
2019-04-22T08:29:38.093Z,23.30
2019-04-22T08:31:59.469Z,23.30
2019-04-22T08:34:34.239Z,22.90
2019-04-22T08:39:33.156Z,23.10
2019-04-22T08:42:08.313Z,23.20
2019-04-22T08:44:51.975Z,23.60
2019-04-22T08:47:16.204Z,23.70
2019-04-22T08:49:42.571Z,23.70
2019-04-22T08:52:08.789Z,24.10
2019-04-22T08:54:36.027Z,24.50
2019-04-22T08:59:43.615Z,25.00
2019-04-22T09:02:23.012Z,25.00
2019-04-22T09:04:48.058Z,23.90
2019-04-22T09:07:28.876Z,24.00
2019-04-22T09:12:49.882Z,24.00
2019-04-22T09:15:13.244Z,24.30
2019-04-22T09:17:40.143Z,24.40
2019-04-22T09:20:18.454Z,24.60
2019-04-22T09:22:47.230Z,25.00
2019-04-22T09:25:25.408Z,25.20
2019-04-22T09:27:57.170Z,24.50
2019-04-22T09:30:37.039Z,24.30
2019-04-22T09:33:15.977Z,24.50
2019-04-22T09:35:45.106Z,24.60
2019-04-22T09:38:29.597Z,24.30
2019-04-22T09:41:06.559Z,24.00
2019-04-22T09:43:26.193Z,24.40
2019-04-22T09:46:02.133Z,24.70
2019-04-22T09:51:09.823Z,25.00
2019-04-22T09:53:46.791Z,24.90
2019-04-22T09:56:09.842Z,25.20
2019-04-22T10:01:26.107Z,24.40
2019-04-22T10:03:51.104Z,24.70
2019-04-22T10:06:27.850Z,24.40
2019-04-22T10:09:02.178Z,24.90
2019-04-22T10:11:23.975Z,25.00
2019-04-22T10:13:53.730Z,24.90
2019-04-22T10:16:25.381Z,25.30
2019-04-22T10:18:54.446Z,25.80
2019-04-22T10:21:24.322Z,25.20
2019-04-22T10:23:53.582Z,25.50
2019-04-22T10:26:26.839Z,25.30
2019-04-22T10:28:52.531Z,25.50
2019-04-22T10:31:27.992Z,25.50
2019-04-22T10:33:40.798Z,25.10
2019-04-22T10:35:55.383Z,25.10
2019-04-22T10:38:24.155Z,25.40
2019-04-22T10:40:52.717Z,25.10
2019-04-22T10:43:21.318Z,25.20
2019-04-22T10:45:50.340Z,25.20
2019-04-22T10:48:19.460Z,25.00
2019-04-22T10:50:48.868Z,24.90
2019-04-22T10:53:19.772Z,25.40
2019-04-22T10:55:51.004Z,25.40
2019-04-22T10:58:20.887Z,25.40
2019-04-22T11:00:50.374Z,25.30
2019-04-22T11:03:20.390Z,25.40
2019-04-22T11:05:50.493Z,24.80
2019-04-22T11:08:28.514Z,25.20
2019-04-22T11:11:05.848Z,25.50
2019-04-22T11:13:20.146Z,25.70
2019-04-22T11:15:48.964Z,25.60
2019-04-22T11:18:17.847Z,25.60
2019-04-22T11:20:47.409Z,25.50
2019-04-22T11:23:16.469Z,25.60
2019-04-22T11:25:46.045Z,25.80
2019-04-22T11:28:16.032Z,26.00
2019-04-22T11:30:44.792Z,26.00
2019-04-22T11:33:14.372Z,26.00
2019-04-22T11:35:43.792Z,26.40
2019-04-22T11:38:12.904Z,25.90
2019-04-22T11:40:47.479Z,25.50
2019-04-22T11:43:12.375Z,25.20
2019-04-22T11:45:41.630Z,25.20
2019-04-22T11:48:11.174Z,25.50
2019-04-22T11:50:40.136Z,25.60
2019-04-22T11:53:09.073Z,25.60
2019-04-22T11:55:37.808Z,25.40
2019-04-22T11:58:06.855Z,25.60
2019-04-22T12:00:36.955Z,25.40
2019-04-22T12:03:07.315Z,25.10
2019-04-22T12:05:37.475Z,24.90
2019-04-22T12:08:07.295Z,24.70
2019-04-22T12:10:46.396Z,24.50
2019-04-22T12:13:08.000Z,24.30
2019-04-22T12:15:37.341Z,24.30
2019-04-22T12:18:09.042Z,24.50
2019-04-22T12:20:39.182Z,24.50
2019-04-22T12:23:09.405Z,24.20
2019-04-22T12:25:46.352Z,24.30
2019-04-22T12:28:09.036Z,24.30
2019-04-22T12:30:37.663Z,24.20
2019-04-22T12:33:10.261Z,24.00
2019-04-22T12:35:36.976Z,24.10
2019-04-22T12:38:08.637Z,24.10
2019-04-22T12:40:43.427Z,24.10
2019-04-22T12:43:06.649Z,24.20
2019-04-22T12:45:36.398Z,24.20
2019-04-22T12:48:06.260Z,24.10
2019-04-22T12:50:40.253Z,24.30
2019-04-22T12:53:10.879Z,24.50
2019-04-22T12:55:35.843Z,24.70
2019-04-22T12:58:05.444Z,24.60
2019-04-22T13:00:36.303Z,24.60
2019-04-22T13:03:05.497Z,24.50
2019-04-22T13:05:35.027Z,24.30
2019-04-22T13:08:03.771Z,24.50
2019-04-22T13:10:42.948Z,24.60
2019-04-22T13:13:02.771Z,24.60
2019-04-22T13:15:32.896Z,24.60
2019-04-22T13:18:12.830Z,24.60
2019-04-22T13:20:32.397Z,24.60
2019-04-22T13:23:02.141Z,24.70
2019-04-22T13:25:32.324Z,24.70
2019-04-22T13:28:01.149Z,24.70
2019-04-22T13:30:30.526Z,24.60
2019-04-22T13:32:59.182Z,24.60
2019-04-22T13:35:28.034Z,24.80
2019-04-22T13:37:57.343Z,24.60
2019-04-22T13:40:26.096Z,24.70
2019-04-22T13:42:56.248Z,24.80
2019-04-22T13:45:25.568Z,24.90
2019-04-22T13:48:11.496Z,24.90
2019-04-22T13:53:40.283Z,24.80
2019-04-22T13:55:54.758Z,24.80
2019-04-22T13:58:08.491Z,24.90
2019-04-22T14:00:28.647Z,25.00
2019-04-22T14:03:16.254Z,24.90
2019-04-22T14:05:46.805Z,24.90
2019-04-22T14:08:16.564Z,25.00
2019-04-22T14:10:46.015Z,25.00
2019-04-22T14:13:16.074Z,25.00
2019-04-22T14:15:44.645Z,25.00
2019-04-22T14:18:13.134Z,25.00
2019-04-22T14:20:42.863Z,25.00
2019-04-22T14:23:12.261Z,25.10
2019-04-22T14:25:42.852Z,25.20
2019-04-22T14:28:16.901Z,25.20
2019-04-22T14:30:42.540Z,25.10
2019-04-22T14:33:12.091Z,25.00
2019-04-22T14:35:41.562Z,25.00
2019-04-22T14:38:10.296Z,25.10
2019-04-22T14:40:40.976Z,25.10
2019-04-22T14:43:31.601Z,24.90
2019-04-22T14:46:06.991Z,25.00
2019-04-22T14:48:37.369Z,25.00
2019-04-22T14:50:59.122Z,25.10
2019-04-22T14:53:31.110Z,25.00
2019-04-22T14:55:40.388Z,25.10
2019-04-22T14:58:09.210Z,25.20
2019-04-22T15:00:38.214Z,25.20
2019-04-22T15:03:08.203Z,25.20
2019-04-22T15:05:37.453Z,25.00
2019-04-22T15:08:07.023Z,25.00
2019-04-22T15:10:36.158Z,24.90
2019-04-22T15:13:05.461Z,24.80
2019-04-22T15:15:51.154Z,24.80
2019-04-22T15:18:23.973Z,24.80
2019-04-22T15:20:56.738Z,24.80
2019-04-22T15:23:26.564Z,24.80
2019-04-22T15:25:56.691Z,24.90
2019-04-22T15:28:25.348Z,24.80
2019-04-22T15:30:55.476Z,24.60
2019-04-22T15:33:25.522Z,24.70
2019-04-22T15:35:55.435Z,24.80
2019-04-22T15:38:24.388Z,24.80
2019-04-22T15:40:54.566Z,24.80
2019-04-22T15:43:27.011Z,24.70
2019-04-22T15:45:54.785Z,24.70
2019-04-22T15:48:24.980Z,24.60
2019-04-22T15:50:54.894Z,24.60
2019-04-22T15:53:23.588Z,24.50
2019-04-22T15:55:52.503Z,24.50
2019-04-22T15:58:21.771Z,24.40
2019-04-22T16:00:59.915Z,24.40
2019-04-22T16:03:20.584Z,24.50
2019-04-22T16:05:50.284Z,24.40
2019-04-22T16:08:19.182Z,24.40
2019-04-22T16:10:48.178Z,24.40
2019-04-22T16:13:22.349Z,24.40
2019-04-22T16:15:46.999Z,24.40
2019-04-22T16:18:15.445Z,24.30
2019-04-22T16:20:44.038Z,24.30
2019-04-22T16:23:20.230Z,24.30
2019-04-22T16:25:49.482Z,24.40
2019-04-22T16:28:19.413Z,24.30
2019-04-22T16:30:48.946Z,24.30
2019-04-22T16:33:19.254Z,24.30
2019-04-22T16:35:49.047Z,24.20
2019-04-22T16:38:19.084Z,24.10
2019-04-22T16:40:48.630Z,24.10
2019-04-22T16:43:17.281Z,24.00
2019-04-22T16:45:45.715Z,24.00
2019-04-22T16:48:15.671Z,24.00
2019-04-22T16:50:46.621Z,24.00
2019-04-22T16:53:15.004Z,24.00
2019-04-22T16:55:44.686Z,23.90
2019-04-22T16:58:14.725Z,23.90
2019-04-22T17:00:44.913Z,23.80
2019-04-22T17:03:18.464Z,23.80
2019-04-22T17:05:49.855Z,23.80
2019-04-22T17:08:18.733Z,23.80
2019-04-22T17:10:49.366Z,23.80
2019-04-22T17:13:24.448Z,23.70
2019-04-22T17:15:49.427Z,23.70
2019-04-22T17:18:19.181Z,23.70
2019-04-22T17:20:48.765Z,23.60
2019-04-22T17:23:17.790Z,23.60
2019-04-22T17:25:46.249Z,23.50
2019-04-22T17:28:15.423Z,23.50
2019-04-22T17:30:43.999Z,23.40
2019-04-22T17:33:12.758Z,23.40
2019-04-22T17:35:44.623Z,23.40
2019-04-22T17:38:22.667Z,23.30
2019-04-22T17:40:56.213Z,23.30
2019-04-22T17:43:40.525Z,23.20
2019-04-22T17:46:00.161Z,23.20
2019-04-22T17:48:53.294Z,23.20
2019-04-22T17:51:39.622Z,23.10
2019-04-22T17:54:11.618Z,23.10
2019-04-22T17:56:27.651Z,23.10
2019-04-22T17:58:58.782Z,23.00
2019-04-22T18:01:29.638Z,22.90
2019-04-22T18:03:43.654Z,22.90
2019-04-22T18:06:14.177Z,22.90
2019-04-22T18:08:54.940Z,22.80
2019-04-22T18:11:33.879Z,22.80
2019-04-22T18:14:00.318Z,22.70
2019-04-22T18:16:32.297Z,22.60
2019-04-22T18:19:00.742Z,22.60
2019-04-22T18:21:23.202Z,22.50
2019-04-22T18:23:49.348Z,22.40
2019-04-22T18:26:27.733Z,22.30
2019-04-22T18:29:02.464Z,22.20
2019-04-22T18:31:22.885Z,22.10
2019-04-22T18:33:58.706Z,22.10
2019-04-22T18:36:30.623Z,22.00
2019-04-22T18:39:04.256Z,21.90
2019-04-22T18:41:30.788Z,21.90
2019-04-22T18:44:11.479Z,21.80
2019-04-22T18:46:37.064Z,21.70
2019-04-22T18:49:07.550Z,21.60
2019-04-22T18:51:42.607Z,21.60
2019-04-22T18:54:11.837Z,21.50
2019-04-22T18:56:43.278Z,21.40
2019-04-22T18:59:02.472Z,21.40
2019-04-22T19:01:23.966Z,21.30
2019-04-22T19:04:01.401Z,21.20
2019-04-22T19:06:50.541Z,21.20
2019-04-22T19:09:15.349Z,21.10
2019-04-22T19:11:59.390Z,21.00
2019-04-22T19:14:20.672Z,20.90
2019-04-22T19:16:48.190Z,20.90
2019-04-22T19:19:33.505Z,20.80
2019-04-22T19:21:49.563Z,20.80
2019-04-22T19:24:17.373Z,20.70
2019-04-22T19:29:18.634Z,20.50
2019-04-22T19:31:48.387Z,20.40
2019-04-22T19:34:16.604Z,20.40
2019-04-22T19:36:54.443Z,20.30
2019-04-22T19:39:12.144Z,20.30
2019-04-22T19:41:48.832Z,20.20
2019-04-22T19:44:25.004Z,20.20
2019-04-22T19:47:10.707Z,20.20
2019-04-22T19:49:29.342Z,20.10
2019-04-22T19:52:02.520Z,20.00
2019-04-22T19:54:17.436Z,19.90
2019-04-22T19:56:42.910Z,19.80
2019-04-22T19:59:12.147Z,19.80
2019-04-22T20:01:49.496Z,19.80
2019-04-22T20:04:40.028Z,19.70
2019-04-22T20:07:06.963Z,19.60
2019-04-22T20:09:35.263Z,19.60
2019-04-22T20:12:04.405Z,19.50
2019-04-22T20:14:34.918Z,19.30
2019-04-22T20:17:02.494Z,19.30
2019-04-22T20:22:07.659Z,19.30
2019-04-22T20:24:23.857Z,19.20
2019-04-22T20:27:09.418Z,19.10
2019-04-22T20:29:54.036Z,19.00
2019-04-22T20:32:05.342Z,19.00
2019-04-22T20:34:38.139Z,19.00
2019-04-22T20:37:20.712Z,18.90
2019-04-22T20:39:44.381Z,18.80
2019-04-22T20:42:23.132Z,18.80
2019-04-22T20:44:45.707Z,18.70
2019-04-22T20:47:09.155Z,18.70
2019-04-22T20:49:43.280Z,18.60
2019-04-22T20:52:23.984Z,18.60
2019-04-22T20:54:40.686Z,18.50
2019-04-22T20:57:09.757Z,18.50
2019-04-22T20:59:40.562Z,18.40
2019-04-22T21:02:07.677Z,18.40
2019-04-22T21:04:35.561Z,18.20
2019-04-22T21:07:09.516Z,18.20
2019-04-22T21:09:43.226Z,18.10
2019-04-22T21:12:09.100Z,18.00
2019-04-22T21:14:46.026Z,18.00
2019-04-22T21:17:15.357Z,18.00
2019-04-22T21:19:46.471Z,18.00
2019-04-22T21:22:14.638Z,17.90
2019-04-22T21:24:47.532Z,17.80
2019-04-22T21:27:20.507Z,17.80
2019-04-22T21:29:42.355Z,17.70
2019-04-22T21:32:17.624Z,17.70
2019-04-22T21:34:55.343Z,17.60
2019-04-22T21:37:20.310Z,17.50
2019-04-22T21:39:41.137Z,17.40
2019-04-22T21:42:12.758Z,17.40
2019-04-22T21:44:46.980Z,17.40
2019-04-22T21:47:25.636Z,17.50
2019-04-22T21:49:51.452Z,17.40
2019-04-22T21:52:16.949Z,17.30
2019-04-22T21:54:51.893Z,17.20
2019-04-22T21:57:40.009Z,17.10
2019-04-22T22:00:00.685Z,17.00
2019-04-22T22:02:28.050Z,17.10
2019-04-22T22:04:52.569Z,17.00
2019-04-22T22:07:13.901Z,17.00
2019-04-22T22:09:54.203Z,16.90
2019-04-22T22:12:26.488Z,16.90
2019-04-22T22:14:55.848Z,16.90
2019-04-22T22:17:23.303Z,16.80
2019-04-22T22:19:54.332Z,16.80
2019-04-22T22:22:41.990Z,16.70
2019-04-22T22:25:00.019Z,16.60
2019-04-22T22:27:32.522Z,16.50
2019-04-22T22:30:16.394Z,16.50
2019-04-22T22:32:30.431Z,16.40
2019-04-22T22:35:01.745Z,16.40
2019-04-22T22:37:17.058Z,16.30
2019-04-22T22:39:50.030Z,16.30
2019-04-22T22:42:10.861Z,16.30
2019-04-22T22:44:44.685Z,16.20
2019-04-22T22:47:34.273Z,16.20
2019-04-22T22:49:59.522Z,16.20
2019-04-22T22:52:50.352Z,16.10
2019-04-22T22:55:09.106Z,16.10
2019-04-22T22:57:33.292Z,16.10
2019-04-22T23:00:01.756Z,16.00
2019-04-22T23:02:28.397Z,15.90
2019-04-22T23:05:06.104Z,15.90
2019-04-22T23:07:36.906Z,15.80
2019-04-22T23:10:01.628Z,15.70
2019-04-22T23:12:46.578Z,15.60
2019-04-22T23:15:00.517Z,15.60
2019-04-22T23:17:18.117Z,15.50
2019-04-22T23:19:46.592Z,15.40
2019-04-22T23:22:25.299Z,15.40
2019-04-22T23:25:14.035Z,15.40
2019-04-22T23:27:40.656Z,15.20
2019-04-22T23:30:18.438Z,15.20
2019-04-22T23:32:57.825Z,15.20
2019-04-22T23:35:30.746Z,15.10
2019-04-22T23:38:00.173Z,15.00
2019-04-22T23:40:37.110Z,15.10
2019-04-22T23:43:07.221Z,15.10
2019-04-22T23:45:35.983Z,15.00
2019-04-22T23:48:03.340Z,15.00
2019-04-22T23:50:39.206Z,14.90
2019-04-22T23:53:11.504Z,14.90
2019-04-22T23:55:37.127Z,14.80
2019-04-22T23:58:11.196Z,14.80
